LTCF

Kars Airport

Kars, Turkey
TAF LTCF 210740Z 2109/2118 VRB02KT CAVOK
Issued Valid From Valid To
Jan-21 @ 07:40 UTC
(2 hours ago)
Jan-21 @ 09:00 UTC
(46 minutes ago)
Jan-21 @ 18:00 UTC
(in 8 hours)
Jan-21 @ 09:00 to Jan-21 @ 18:00
TAF LTCF 210740Z 2109/2118 VRB02KT CAVOK
Wind Visibility Clouds Conditions
Variable at 2 knots 10,000+ meters
  • No significant clouds
TAF LTCF 210740Z 2109/2118 VRB02KT CAVOK
Issued Jan-21 @ 07:40 UTC
(2 hours ago)
Valid From Jan-21 @ 09:00 UTC
(46 minutes ago)
Valid To Jan-21 @ 18:00 UTC
(in 8 hours)
Jan-21 @ 09:00 - Jan-21 @ 18:00
Wind Visibility
Variable at 2 knots 10,000+ meters
Clouds
  • No significant clouds
Conditions